createdAt,value
2018-10-19T00:14:18.641Z,21.00
2018-10-19T00:34:58.548Z,20.10
2018-10-19T00:55:35.926Z,20.30
2018-10-19T01:16:19.187Z,17.83
2018-10-19T01:37:06.748Z,16.70
2018-10-19T01:57:47.150Z,15.53
2018-10-19T02:18:27.122Z,15.47
2018-10-19T02:39:06.422Z,13.97
2018-10-19T02:59:48.720Z,12.33
2018-10-19T03:20:22.771Z,10.27
2018-10-19T03:40:58.073Z,9.90
2018-10-19T04:01:35.462Z,10.23
2018-10-19T04:22:12.578Z,9.40
2018-10-19T04:42:53.998Z,8.00
2018-10-19T05:03:34.185Z,8.10
2018-10-19T05:24:20.829Z,8.87
2018-10-19T05:44:58.860Z,8.97
2018-10-19T06:05:37.344Z,9.00
2018-10-19T06:26:13.455Z,9.73
2018-10-19T06:46:56.697Z,8.20
2018-10-19T07:07:33.774Z,8.27
2018-10-19T07:28:12.116Z,8.10
2018-10-19T07:48:47.388Z,7.83
2018-10-19T08:09:26.656Z,8.87
2018-10-19T08:30:06.842Z,8.40
2018-10-19T08:50:46.451Z,11.80
2018-10-19T09:11:28.545Z,13.90
2018-10-19T09:32:03.716Z,14.80
2018-10-19T09:52:40.831Z,20.07
2018-10-19T10:13:17.343Z,31.27
2018-10-19T10:33:58.477Z,27.80
2018-10-19T10:54:34.641Z,26.23
2018-10-19T11:15:17.302Z,25.47
2018-10-19T11:36:02.388Z,23.57
2018-10-19T11:56:41.650Z,25.27
2018-10-19T12:17:20.270Z,22.13
2018-10-19T12:38:00.183Z,21.60
2018-10-19T12:58:38.537Z,20.80
2018-10-19T13:19:18.712Z,21.30
2018-10-19T13:40:00.131Z,22.73
2018-10-19T14:00:39.550Z,21.33
2018-10-19T14:21:18.813Z,18.30
2018-10-19T14:42:00.130Z,15.77
2018-10-19T15:02:36.887Z,13.60
2018-10-19T15:23:19.224Z,15.60
2018-10-19T15:43:59.724Z,15.67
2018-10-19T16:04:41.134Z,15.90
2018-10-19T16:25:22.243Z,12.80
2018-10-19T16:46:01.548Z,14.10
2018-10-19T17:06:40.044Z,14.80
2018-10-19T17:27:13.285Z,16.60
2018-10-19T17:47:55.317Z,14.37
2018-10-19T18:08:36.843Z,17.50
2018-10-19T18:29:15.909Z,17.40
2018-10-19T18:50:00.207Z,16.80
2018-10-19T19:10:38.812Z,17.60
2018-10-19T19:31:16.575Z,17.80
2018-10-19T19:51:57.982Z,18.70
2018-10-19T20:12:34.177Z,18.00
2018-10-19T20:33:10.417Z,17.70
2018-10-19T20:53:49.993Z,17.47
2018-10-19T21:14:32.296Z,17.73
2018-10-19T21:35:09.766Z,18.37
2018-10-19T21:55:48.811Z,18.73
2018-10-19T22:16:25.778Z,17.47
2018-10-19T22:37:05.089Z,17.60
2018-10-19T22:57:44.318Z,17.60
2018-10-19T23:18:26.645Z,15.80
2018-10-19T23:39:08.986Z,17.30
2018-10-19T23:59:52.859Z,15.30
